YQF weather

Red Deer Regional Airport
Red Deer, Alberta, Canada

Public forecast

Using degrees Celsius for public forecast. Weather courtesy of forecast.io.

METAR (pilot weather report)

Retrieved 2019/07/20 14:00 UTC (1 hour ago):

CYQF 201400Z 33006KT 12SM FEW008 FEW025 SCT060 BKN100 13/11 A3010 RMK SF1SC1SC1AC3 SLP205 DENSITY ALT 3200FT

TAF (pilot weather forecast)

Retrieved 2019/07/20 12:51 UTC (2 hours ago):

TAF CYQF 201149Z 2012/2024 32005KT P6SM FEW008 BKN100 TEMPO 2012/2015 2SM BR BECMG 2013/2015 36008KT FM201500 36008KT P6SM SCT020 BKN040 TEMPO 2015/2021 P6SM -SHRA BKN020 FM202100 03006KT P6SM VCSH SCT020 BKN040 TEMPO 2021/2024 VRB15G25KT 5SM TSRA BKN020CB RMK NXT FCST BY 201800Z